sensor_id;sensor_type;location;lat;lon;timestamp;pressure;altitude;pressure_sealevel;temperature;humidity
9091;BME280;4581;42.416;25.598;2023-08-20T00:00:38;98509.16;;;24.51;nan
9091;BME280;4581;42.416;25.598;2023-08-20T00:03:10;98498.69;;;24.53;nan
9091;BME280;4581;42.416;25.598;2023-08-20T00:05:38;98510.28;;;24.55;nan
9091;BME280;4581;42.416;25.598;2023-08-20T00:08:05;98501.50;;;24.63;nan
9091;BME280;4581;42.416;25.598;2023-08-20T00:10:32;98497.06;;;24.57;nan
9091;BME280;4581;42.416;25.598;2023-08-20T00:12:59;98510.59;;;24.63;nan
9091;BME280;4581;42.416;25.598;2023-08-20T00:15:26;98502.56;;;24.57;nan
9091;BME280;4581;42.416;25.598;2023-08-20T00:17:56;98492.91;;;24.59;nan
9091;BME280;4581;42.416;25.598;2023-08-20T00:20:23;98500.31;;;24.49;nan
9091;BME280;4581;42.416;25.598;2023-08-20T00:22:50;98501.38;;;24.43;nan
9091;BME280;4581;42.416;25.598;2023-08-20T00:25:17;98500.81;;;24.41;nan
9091;BME280;4581;42.416;25.598;2023-08-20T00:27:44;98495.00;;;24.37;nan
9091;BME280;4581;42.416;25.598;2023-08-20T00:30:11;98501.28;;;24.33;nan
9091;BME280;4581;42.416;25.598;2023-08-20T00:32:38;98494.09;;;24.27;nan
9091;BME280;4581;42.416;25.598;2023-08-20T00:35:05;98497.38;;;24.23;nan
9091;BME280;4581;42.416;25.598;2023-08-20T00:37:34;98489.34;;;24.17;nan
9091;BME280;4581;42.416;25.598;2023-08-20T00:40:02;98487.34;;;24.12;nan
9091;BME280;4581;42.416;25.598;2023-08-20T00:42:31;98496.13;;;24.09;nan
9091;BME280;4581;42.416;25.598;2023-08-20T00:44:58;98491.09;;;24.01;nan
9091;BME280;4581;42.416;25.598;2023-08-20T00:47:25;98483.63;;;23.97;nan
9091;BME280;4581;42.416;25.598;2023-08-20T00:49:52;98482.78;;;23.96;nan
9091;BME280;4581;42.416;25.598;2023-08-20T00:52:19;98482.78;;;23.96;nan
9091;BME280;4581;42.416;25.598;2023-08-20T00:54:47;98475.00;;;23.88;nan
9091;BME280;4581;42.416;25.598;2023-08-20T00:57:14;98481.34;;;23.89;nan
9091;BME280;4581;42.416;25.598;2023-08-20T00:59:41;98473.56;;;23.81;nan
9091;BME280;4581;42.416;25.598;2023-08-20T01:02:08;98476.28;;;23.75;nan
9091;BME280;4581;42.416;25.598;2023-08-20T01:04:35;98477.13;;;23.76;nan
9091;BME280;4581;42.416;25.598;2023-08-20T01:07:14;98473.53;;;23.75;nan
9091;BME280;4581;42.416;25.598;2023-08-20T01:10:18;98472.84;;;23.63;nan
9091;BME280;4581;42.416;25.598;2023-08-20T01:12:43;98469.31;;;23.63;nan
9091;BME280;4581;42.416;25.598;2023-08-20T01:15:10;98465.97;;;23.61;nan
9091;BME280;4581;42.416;25.598;2023-08-20T01:17:41;98474.44;;;23.54;nan
9091;BME280;4581;42.416;25.598;2023-08-20T01:20:11;98474.13;;;23.51;nan
9091;BME280;4581;42.416;25.598;2023-08-20T01:30:29;98473.59;;;23.27;nan
9091;BME280;4581;42.416;25.598;2023-08-20T01:32:57;98463.34;;;23.22;nan
9091;BME280;4581;42.416;25.598;2023-08-20T01:35:25;98466.25;;;23.11;nan
9091;BME280;4581;42.416;25.598;2023-08-20T01:37:54;98469.31;;;23.14;nan
9091;BME280;4581;42.416;25.598;2023-08-20T01:40:21;98467.88;;;23.12;nan
9091;BME280;4581;42.416;25.598;2023-08-20T01:42:48;98464.69;;;23.20;nan
9091;BME280;4581;42.416;25.598;2023-08-20T01:45:14;98463.84;;;23.19;nan
9091;BME280;4581;42.416;25.598;2023-08-20T01:47:41;98466.25;;;23.11;nan
9091;BME280;4581;42.416;25.598;2023-08-20T01:50:08;98458.75;;;23.06;nan
9091;BME280;4581;42.416;25.598;2023-08-20T01:52:35;98452.13;;;23.02;nan
9091;BME280;4581;42.416;25.598;2023-08-20T01:55:02;98466.19;;;23.06;nan
9091;BME280;4581;42.416;25.598;2023-08-20T01:57:29;98464.50;;;23.05;nan
9091;BME280;4581;42.416;25.598;2023-08-20T01:59:55;98459.00;;;23.05;nan
9091;BME280;4581;42.416;25.598;2023-08-20T02:02:22;98452.53;;;23.16;nan
9091;BME280;4581;42.416;25.598;2023-08-20T02:04:49;98457.19;;;23.15;nan
9091;BME280;4581;42.416;25.598;2023-08-20T02:07:16;98453.25;;;23.06;nan
9091;BME280;4581;42.416;25.598;2023-08-20T02:09:43;98455.50;;;23.09;nan
9091;BME280;4581;42.416;25.598;2023-08-20T02:12:10;98455.19;;;23.06;nan
9091;BME280;4581;42.416;25.598;2023-08-20T02:14:36;98465.88;;;23.02;nan
9091;BME280;4581;42.416;25.598;2023-08-20T02:17:03;98466.34;;;22.99;nan
9091;BME280;4581;42.416;25.598;2023-08-20T02:19:30;98465.94;;;22.85;nan
9091;BME280;4581;42.416;25.598;2023-08-20T02:21:57;98458.56;;;22.91;nan
9091;BME280;4581;42.416;25.598;2023-08-20T02:24:24;98459.59;;;22.85;nan
9091;BME280;4581;42.416;25.598;2023-08-20T02:26:51;98456.78;;;22.80;nan
9091;BME280;4581;42.416;25.598;2023-08-20T02:29:17;98447.22;;;22.82;nan
9091;BME280;4581;42.416;25.598;2023-08-20T02:31:44;98464.34;;;22.90;nan
9091;BME280;4581;42.416;25.598;2023-08-20T02:34:11;98456.84;;;22.85;nan
9091;BME280;4581;42.416;25.598;2023-08-20T02:36:38;98452.44;;;22.84;nan
9091;BME280;4581;42.416;25.598;2023-08-20T02:39:05;98459.53;;;22.80;nan
9091;BME280;4581;42.416;25.598;2023-08-20T02:41:34;98466.94;;;22.79;nan
9091;BME280;4581;42.416;25.598;2023-08-20T02:44:02;98454.63;;;22.82;nan
9091;BME280;4581;42.416;25.598;2023-08-20T02:46:29;98458.53;;;22.86;nan
9091;BME280;4581;42.416;25.598;2023-08-20T02:48:56;98463.06;;;22.97;nan
9091;BME280;4581;42.416;25.598;2023-08-20T02:51:23;98468.94;;;23.06;nan
9091;BME280;4581;42.416;25.598;2023-08-20T02:53:50;98464.81;;;23.08;nan
9091;BME280;4581;42.416;25.598;2023-08-20T02:56:17;98467.34;;;23.10;nan
9091;BME280;4581;42.416;25.598;2023-08-20T02:58:43;98465.44;;;23.15;nan
9091;BME280;4581;42.416;25.598;2023-08-20T03:01:25;98470.50;;;23.23;nan
9091;BME280;4581;42.416;25.598;2023-08-20T03:03:52;98464.03;;;23.35;nan
9091;BME280;4581;42.416;25.598;2023-08-20T03:06:19;98469.31;;;23.41;nan
9091;BME280;4581;42.416;25.598;2023-08-20T03:08:46;98472.16;;;23.46;nan
9091;BME280;4581;42.416;25.598;2023-08-20T03:11:12;98474.13;;;23.51;nan
9091;BME280;4581;42.416;25.598;2023-08-20T03:13:39;98478.53;;;23.52;nan
9091;BME280;4581;42.416;25.598;2023-08-20T03:16:06;98478.81;;;23.50;nan
9091;BME280;4581;42.416;25.598;2023-08-20T03:18:32;98473.56;;;23.49;nan
9091;BME280;4581;42.416;25.598;2023-08-20T03:20:59;98476.31;;;23.49;nan
9091;BME280;4581;42.416;25.598;2023-08-20T03:23:27;98471.88;;;23.48;nan
9091;BME280;4581;42.416;25.598;2023-08-20T03:25:57;98475.47;;;23.48;nan
9091;BME280;4581;42.416;25.598;2023-08-20T03:28:24;98474.63;;;23.48;nan
9091;BME280;4581;42.416;25.598;2023-08-20T03:30:51;98475.22;;;23.50;nan
9091;BME280;4581;42.416;25.598;2023-08-20T03:33:17;98473.31;;;23.50;nan
9091;BME280;4581;42.416;25.598;2023-08-20T03:35:45;98476.88;;;23.51;nan
9091;BME280;4581;42.416;25.598;2023-08-20T03:38:12;98475.28;;;23.55;nan
9091;BME280;4581;42.416;25.598;2023-08-20T03:40:39;98471.09;;;23.52;nan
9091;BME280;4581;42.416;25.598;2023-08-20T03:43:05;98477.44;;;23.53;nan
9091;BME280;4581;42.416;25.598;2023-08-20T03:45:32;98470.03;;;23.53;nan
9091;BME280;4581;42.416;25.598;2023-08-20T03:47:59;98476.63;;;23.52;nan
9091;BME280;4581;42.416;25.598;2023-08-20T03:50:26;98474.69;;;23.53;nan
9091;BME280;4581;42.416;25.598;2023-08-20T03:52:53;98470.03;;;23.53;nan
9091;BME280;4581;42.416;25.598;2023-08-20T03:55:20;98479.13;;;23.54;nan
9091;BME280;4581;42.416;25.598;2023-08-20T03:57:46;98480.78;;;23.55;nan
9091;BME280;4581;42.416;25.598;2023-08-20T04:00:13;98483.56;;;23.60;nan
9091;BME280;4581;42.416;25.598;2023-08-20T04:02:40;98478.47;;;23.73;nan
9091;BME280;4581;42.416;25.598;2023-08-20T04:05:07;98479.44;;;23.89;nan
9091;BME280;4581;42.416;25.598;2023-08-20T04:07:33;98482.78;;;23.96;nan
9091;BME280;4581;42.416;25.598;2023-08-20T04:10:00;98474.19;;;23.88;nan
9091;BME280;4581;42.416;25.598;2023-08-20T04:12:27;98476.69;;;23.89;nan
9091;BME280;4581;42.416;25.598;2023-08-20T04:14:54;98478.34;;;23.90;nan
9091;BME280;4581;42.416;25.598;2023-08-20T04:17:21;98475.94;;;23.99;nan
9091;BME280;4581;42.416;25.598;2023-08-20T04:19:48;98480.41;;;24.05;nan
9091;BME280;4581;42.416;25.598;2023-08-20T04:22:15;98487.28;;;24.07;nan
9091;BME280;4581;42.416;25.598;2023-08-20T04:24:41;98493.75;;;24.18;nan
9091;BME280;4581;42.416;25.598;2023-08-20T04:27:08;98486.94;;;24.26;nan
9091;BME280;4581;42.416;25.598;2023-08-20T04:29:35;98488.88;;;24.30;nan
9091;BME280;4581;42.416;25.598;2023-08-20T04:32:02;98481.81;;;24.44;nan
9091;BME280;4581;42.416;25.598;2023-08-20T04:34:28;98489.03;;;24.50;nan
9091;BME280;4581;42.416;25.598;2023-08-20T04:36:55;98483.84;;;24.64;nan
9091;BME280;4581;42.416;25.598;2023-08-20T04:39:22;98482.84;;;24.75;nan
9091;BME280;4581;42.416;25.598;2023-08-20T04:41:49;98485.03;;;24.78;nan
9091;BME280;4581;42.416;25.598;2023-08-20T04:44:15;98484.03;;;24.89;nan
9091;BME280;4581;42.416;25.598;2023-08-20T04:46:42;98487.63;;;25.00;nan
9091;BME280;4581;42.416;25.598;2023-08-20T04:49:09;98482.75;;;25.17;nan
9091;BME280;4581;42.416;25.598;2023-08-20T04:51:36;98489.09;;;25.17;nan
9091;BME280;4581;42.416;25.598;2023-08-20T04:54:03;98484.72;;;25.27;nan
9091;BME280;4581;42.416;25.598;2023-08-20T04:56:30;98482.81;;;25.37;nan
9091;BME280;4581;42.416;25.598;2023-08-20T04:58:57;98479.25;;;25.47;nan
9091;BME280;4581;42.416;25.598;2023-08-20T05:01:23;98486.47;;;25.53;nan
9091;BME280;4581;42.416;25.598;2023-08-20T05:03:50;98485.66;;;25.73;nan
9091;BME280;4581;42.416;25.598;2023-08-20T05:06:17;98495.34;;;25.85;nan
9091;BME280;4581;42.416;25.598;2023-08-20T05:08:44;98483.50;;;25.95;nan
9091;BME280;4581;42.416;25.598;2023-08-20T05:11:10;98492.59;;;26.05;nan
9091;BME280;4581;42.416;25.598;2023-08-20T05:13:37;98493.69;;;26.04;nan
9091;BME280;4581;42.416;25.598;2023-08-20T05:16:04;98489.28;;;26.19;nan
9091;BME280;4581;42.416;25.598;2023-08-20T05:18:30;98492.63;;;26.36;nan
9091;BME280;4581;42.416;25.598;2023-08-20T05:20:57;98496.19;;;26.46;nan
9091;BME280;4581;42.416;25.598;2023-08-20T05:23:24;98503.38;;;26.58;nan
9091;BME280;4581;42.416;25.598;2023-08-20T05:25:50;98501.94;;;26.75;nan
9091;BME280;4581;42.416;25.598;2023-08-20T05:28:17;98499.44;;;26.79;nan
9091;BME280;4581;42.416;25.598;2023-08-20T05:30:53;98500.78;;;26.96;nan
9091;BME280;4581;42.416;25.598;2023-08-20T05:33:20;98504.06;;;27.14;nan
9091;BME280;4581;42.416;25.598;2023-08-20T05:35:47;98503.97;;;27.29;nan
9091;BME280;4581;42.416;25.598;2023-08-20T05:38:13;98515.53;;;27.51;nan
9091;BME280;4581;42.416;25.598;2023-08-20T05:40:40;98511.25;;;27.69;nan
9091;BME280;4581;42.416;25.598;2023-08-20T05:43:07;98505.22;;;28.01;nan
9091;BME280;4581;42.416;25.598;2023-08-20T05:45:34;98506.25;;;28.15;nan
9091;BME280;4581;42.416;25.598;2023-08-20T05:48:01;98503.38;;;28.25;nan
9091;BME280;4581;42.416;25.598;2023-08-20T05:50:28;98504.78;;;28.27;nan
9091;BME280;4581;42.416;25.598;2023-08-20T05:52:55;98498.88;;;28.34;nan
9091;BME280;4581;42.416;25.598;2023-08-20T05:55:21;98505.94;;;28.50;nan
9091;BME280;4581;42.416;25.598;2023-08-20T05:57:48;98511.03;;;28.72;nan
9091;BME280;4581;42.416;25.598;2023-08-20T06:00:15;98508.19;;;28.77;nan
9091;BME280;4581;42.416;25.598;2023-08-20T06:02:44;98502.41;;;28.97;nan
9091;BME280;4581;42.416;25.598;2023-08-20T06:05:11;98510.91;;;29.06;nan
9091;BME280;4581;42.416;25.598;2023-08-20T06:07:38;98507.41;;;29.43;nan
9091;BME280;4581;42.416;25.598;2023-08-20T06:10:05;98505.34;;;29.72;nan
9091;BME280;4581;42.416;25.598;2023-08-20T06:12:32;98511.47;;;29.93;nan
9091;BME280;4581;42.416;25.598;2023-08-20T06:14:59;98517.66;;;30.22;nan
9091;BME280;4581;42.416;25.598;2023-08-20T06:17:26;98513.94;;;30.45;nan
9091;BME280;4581;42.416;25.598;2023-08-20T06:19:53;98515.81;;;30.50;nan
9091;BME280;4581;42.416;25.598;2023-08-20T06:22:19;98512.44;;;30.66;nan
9091;BME280;4581;42.416;25.598;2023-08-20T06:24:46;98517.94;;;30.72;nan
9091;BME280;4581;42.416;25.598;2023-08-20T06:27:13;98514.53;;;30.75;nan
9091;BME280;4581;42.416;25.598;2023-08-20T06:29:39;98514.94;;;30.82;nan
9091;BME280;4581;42.416;25.598;2023-08-20T06:32:06;98520.09;;;30.75;nan
9091;BME280;4581;42.416;25.598;2023-08-20T06:34:36;98520.88;;;30.61;nan
9091;BME280;4581;42.416;25.598;2023-08-20T06:37:04;98520.28;;;30.64;nan
9091;BME280;4581;42.416;25.598;2023-08-20T06:39:31;98524.03;;;30.87;nan
9091;BME280;4581;42.416;25.598;2023-08-20T06:41:57;98524.78;;;30.93;nan
9091;BME280;4581;42.416;25.598;2023-08-20T06:44:24;98532.31;;;31.06;nan
9091;BME280;4581;42.416;25.598;2023-08-20T06:46:51;98531.06;;;30.98;nan
9091;BME280;4581;42.416;25.598;2023-08-20T06:49:18;98530.16;;;31.03;nan
9091;BME280;4581;42.416;25.598;2023-08-20T06:51:45;98540.59;;;31.11;nan
9091;BME280;4581;42.416;25.598;2023-08-20T06:54:11;98541.44;;;31.25;nan
9091;BME280;4581;42.416;25.598;2023-08-20T06:56:38;98539.66;;;31.43;nan
9091;BME280;4581;42.416;25.598;2023-08-20T06:59:05;98537.72;;;31.57;nan
9091;BME280;4581;42.416;25.598;2023-08-20T07:01:31;98540.06;;;31.64;nan
9091;BME280;4581;42.416;25.598;2023-08-20T07:03:58;98538.19;;;31.73;nan
9091;BME280;4581;42.416;25.598;2023-08-20T07:06:27;98548.44;;;31.64;nan
9091;BME280;4581;42.416;25.598;2023-08-20T07:08:54;98542.41;;;31.70;nan
9091;BME280;4581;42.416;25.598;2023-08-20T07:11:21;98537.47;;;31.81;nan
9091;BME280;4581;42.416;25.598;2023-08-20T07:13:47;98534.31;;;31.96;nan
9091;BME280;4581;42.416;25.598;2023-08-20T07:16:14;98541.53;;;31.97;nan
9091;BME280;4581;42.416;25.598;2023-08-20T07:18:41;98541.03;;;31.95;nan
9091;BME280;4581;42.416;25.598;2023-08-20T07:21:08;98531.63;;;31.91;nan
9091;BME280;4581;42.416;25.598;2023-08-20T07:23:35;98529.63;;;32.05;nan
9091;BME280;4581;42.416;25.598;2023-08-20T07:26:07;98534.38;;;32.04;nan
9091;BME280;4581;42.416;25.598;2023-08-20T07:28:35;98526.44;;;32.12;nan
9091;BME280;4581;42.416;25.598;2023-08-20T07:31:20;98532.09;;;32.07;nan
9091;BME280;4581;42.416;25.598;2023-08-20T07:33:49;98526.38;;;31.89;nan
9091;BME280;4581;42.416;25.598;2023-08-20T07:36:17;98522.91;;;32.06;nan
9091;BME280;4581;42.416;25.598;2023-08-20T07:38:44;98522.44;;;32.26;nan
9091;BME280;4581;42.416;25.598;2023-08-20T07:41:11;98521.59;;;32.48;nan
9091;BME280;4581;42.416;25.598;2023-08-20T07:43:39;98511.91;;;32.45;nan
9091;BME280;4581;42.416;25.598;2023-08-20T07:46:07;98519.00;;;32.52;nan
9091;BME280;4581;42.416;25.598;2023-08-20T07:48:34;98511.53;;;32.61;nan
9091;BME280;4581;42.416;25.598;2023-08-20T07:51:02;98514.44;;;32.56;nan
9091;BME280;4581;42.416;25.598;2023-08-20T07:53:30;98499.56;;;32.46;nan
9091;BME280;4581;42.416;25.598;2023-08-20T07:55:57;98505.56;;;32.54;nan
9091;BME280;4581;42.416;25.598;2023-08-20T07:58:24;98492.91;;;32.56;nan
9091;BME280;4581;42.416;25.598;2023-08-20T08:00:51;98504.84;;;32.70;nan
9091;BME280;4581;42.416;25.598;2023-08-20T08:03:17;98505.81;;;32.66;nan
9091;BME280;4581;42.416;25.598;2023-08-20T08:05:48;98506.06;;;32.78;nan
9091;BME280;4581;42.416;25.598;2023-08-20T08:08:15;98498.91;;;32.94;nan
9091;BME280;4581;42.416;25.598;2023-08-20T08:10:43;98505.63;;;32.93;nan
9091;BME280;4581;42.416;25.598;2023-08-20T08:13:20;98487.34;;;33.18;nan
9091;BME280;4581;42.416;25.598;2023-08-20T08:15:47;98498.94;;;33.42;nan
9091;BME280;4581;42.416;25.598;2023-08-20T08:18:14;98491.03;;;33.53;nan
9091;BME280;4581;42.416;25.598;2023-08-20T08:20:41;98493.56;;;33.80;nan
9091;BME280;4581;42.416;25.598;2023-08-20T08:23:07;98481.88;;;33.86;nan
9091;BME280;4581;42.416;25.598;2023-08-20T08:25:34;98484.19;;;34.02;nan
9091;BME280;4581;42.416;25.598;2023-08-20T08:28:01;98481.22;;;34.07;nan
9091;BME280;4581;42.416;25.598;2023-08-20T08:30:28;98494.69;;;33.62;nan
9091;BME280;4581;42.416;25.598;2023-08-20T08:32:56;98496.34;;;33.71;nan
9091;BME280;4581;42.416;25.598;2023-08-20T08:35:23;98490.78;;;33.80;nan
9091;BME280;4581;42.416;25.598;2023-08-20T08:37:49;98496.19;;;33.68;nan
9091;BME280;4581;42.416;25.598;2023-08-20T08:40:16;98498.84;;;33.73;nan
9091;BME280;4581;42.416;25.598;2023-08-20T08:42:47;98493.59;;;33.89;nan
9091;BME280;4581;42.416;25.598;2023-08-20T08:45:17;98494.56;;;34.01;nan
9091;BME280;4581;42.416;25.598;2023-08-20T08:47:45;98490.78;;;34.14;nan
9091;BME280;4581;42.416;25.598;2023-08-20T08:50:13;98499.53;;;34.21;nan
9091;BME280;4581;42.416;25.598;2023-08-20T08:52:41;98493.94;;;34.30;nan
9091;BME280;4581;42.416;25.598;2023-08-20T08:55:08;98492.91;;;34.43;nan
9091;BME280;4581;42.416;25.598;2023-08-20T08:57:36;98497.81;;;34.55;nan
9091;BME280;4581;42.416;25.598;2023-08-20T09:00:04;98493.41;;;34.37;nan
9091;BME280;4581;42.416;25.598;2023-08-20T09:02:32;98491.06;;;34.56;nan
9091;BME280;4581;42.416;25.598;2023-08-20T09:04:59;98486.28;;;34.65;nan
9091;BME280;4581;42.416;25.598;2023-08-20T09:07:26;98492.13;;;34.17;nan
9091;BME280;4581;42.416;25.598;2023-08-20T09:09:58;98489.00;;;34.18;nan
9091;BME280;4581;42.416;25.598;2023-08-20T09:12:26;98482.53;;;34.35;nan
9091;BME280;4581;42.416;25.598;2023-08-20T09:14:53;98478.03;;;34.68;nan
9091;BME280;4581;42.416;25.598;2023-08-20T09:17:25;98482.50;;;34.69;nan
9091;BME280;4581;42.416;25.598;2023-08-20T09:19:55;98480.66;;;34.82;nan
9091;BME280;4581;42.416;25.598;2023-08-20T09:22:26;98479.28;;;34.88;nan
9091;BME280;4581;42.416;25.598;2023-08-20T09:24:55;98476.34;;;34.85;nan
9091;BME280;4581;42.416;25.598;2023-08-20T09:27:23;98467.47;;;35.12;nan
9091;BME280;4581;42.416;25.598;2023-08-20T09:29:52;98480.41;;;35.34;nan
9091;BME280;4581;42.416;25.598;2023-08-20T09:32:21;98476.88;;;35.45;nan
9091;BME280;4581;42.416;25.598;2023-08-20T09:34:49;98467.41;;;35.29;nan
9091;BME280;4581;42.416;25.598;2023-08-20T09:37:18;98473.44;;;35.40;nan
9091;BME280;4581;42.416;25.598;2023-08-20T09:39:46;98471.00;;;35.59;nan
9091;BME280;4581;42.416;25.598;2023-08-20T09:42:13;98469.00;;;35.68;nan
9091;BME280;4581;42.416;25.598;2023-08-20T09:44:43;98473.72;;;35.76;nan
9091;BME280;4581;42.416;25.598;2023-08-20T09:47:12;98464.84;;;35.74;nan
9091;BME280;4581;42.416;25.598;2023-08-20T09:49:46;98466.38;;;35.63;nan
9091;BME280;4581;42.416;25.598;2023-08-20T09:52:22;98461.53;;;35.93;nan
9091;BME280;4581;42.416;25.598;2023-08-20T09:55:07;98462.56;;;35.88;nan
9091;BME280;4581;42.416;25.598;2023-08-20T09:57:38;98464.84;;;35.95;nan
9091;BME280;4581;42.416;25.598;2023-08-20T10:00:09;98462.38;;;36.14;nan
9091;BME280;4581;42.416;25.598;2023-08-20T10:02:37;98452.47;;;36.29;nan
9091;BME280;4581;42.416;25.598;2023-08-20T10:05:11;98453.44;;;36.45;nan
9091;BME280;4581;42.416;25.598;2023-08-20T10:07:38;98458.16;;;36.53;nan
9091;BME280;4581;42.416;25.598;2023-08-20T10:10:08;98468.94;;;36.51;nan
9091;BME280;4581;42.416;25.598;2023-08-20T10:12:36;98457.91;;;36.46;nan
9091;BME280;4581;42.416;25.598;2023-08-20T10:15:07;98462.47;;;36.71;nan
9091;BME280;4581;42.416;25.598;2023-08-20T10:17:34;98454.97;;;36.42;nan
9091;BME280;4581;42.416;25.598;2023-08-20T10:20:03;98451.03;;;35.60;nan
9091;BME280;4581;42.416;25.598;2023-08-20T10:25:00;98448.13;;;36.19;nan
9091;BME280;4581;42.416;25.598;2023-08-20T10:27:34;98450.84;;;36.40;nan
9091;BME280;4581;42.416;25.598;2023-08-20T10:30:10;98449.66;;;36.62;nan
9091;BME280;4581;42.416;25.598;2023-08-20T10:32:56;98447.22;;;36.72;nan
9091;BME280;4581;42.416;25.598;2023-08-20T10:38:16;98439.03;;;36.91;nan
9091;BME280;4581;42.416;25.598;2023-08-20T10:40:49;98443.84;;;36.91;nan
9091;BME280;4581;42.416;25.598;2023-08-20T10:48:38;98417.03;;;37.06;nan
9091;BME280;4581;42.416;25.598;2023-08-20T10:51:12;98420.19;;;37.28;nan
9091;BME280;4581;42.416;25.598;2023-08-20T10:53:40;98413.28;;;37.50;nan
9091;BME280;4581;42.416;25.598;2023-08-20T10:56:11;98417.91;;;37.70;nan
9091;BME280;4581;42.416;25.598;2023-08-20T10:58:46;98402.88;;;37.78;nan
9091;BME280;4581;42.416;25.598;2023-08-20T11:01:20;98409.88;;;37.84;nan
9091;BME280;4581;42.416;25.598;2023-08-20T11:03:50;98418.13;;;37.77;nan
9091;BME280;4581;42.416;25.598;2023-08-20T11:06:18;98400.00;;;37.63;nan
9091;BME280;4581;42.416;25.598;2023-08-20T11:08:45;98417.09;;;37.70;nan
9091;BME280;4581;42.416;25.598;2023-08-20T11:11:12;98403.53;;;37.87;nan
9091;BME280;4581;42.416;25.598;2023-08-20T11:13:39;98402.22;;;37.97;nan
9091;BME280;4581;42.416;25.598;2023-08-20T11:16:06;98397.53;;;37.89;nan
9091;BME280;4581;42.416;25.598;2023-08-20T11:18:35;98408.63;;;38.10;nan
9091;BME280;4581;42.416;25.598;2023-08-20T11:21:02;98407.91;;;38.13;nan
9091;BME280;4581;42.416;25.598;2023-08-20T11:23:29;98402.16;;;38.09;nan
9091;BME280;4581;42.416;25.598;2023-08-20T11:25:57;98393.66;;;38.21;nan
9091;BME280;4581;42.416;25.598;2023-08-20T11:28:25;98391.38;;;38.11;nan
9091;BME280;4581;42.416;25.598;2023-08-20T11:30:53;98396.31;;;38.30;nan
9091;BME280;4581;42.416;25.598;2023-08-20T11:33:22;98395.47;;;38.14;nan
9091;BME280;4581;42.416;25.598;2023-08-20T11:35:49;98394.22;;;38.27;nan
9091;BME280;4581;42.416;25.598;2023-08-20T11:38:16;98404.84;;;38.18;nan
9091;BME280;4581;42.416;25.598;2023-08-20T11:40:43;98389.25;;;38.08;nan
9091;BME280;4581;42.416;25.598;2023-08-20T11:43:10;98379.47;;;38.18;nan
9091;BME280;4581;42.416;25.598;2023-08-20T11:45:45;98387.03;;;38.29;nan
9091;BME280;4581;42.416;25.598;2023-08-20T11:48:13;98383.13;;;38.34;nan
9091;BME280;4581;42.416;25.598;2023-08-20T11:50:40;98389.28;;;38.24;nan
9091;BME280;4581;42.416;25.598;2023-08-20T11:53:08;98390.56;;;38.11;nan
9091;BME280;4581;42.416;25.598;2023-08-20T11:55:38;98387.78;;;38.26;nan
9091;BME280;4581;42.416;25.598;2023-08-20T11:58:05;98390.34;;;38.31;nan
9091;BME280;4581;42.416;25.598;2023-08-20T12:00:31;98384.84;;;38.23;nan
9091;BME280;4581;42.416;25.598;2023-08-20T12:02:58;98393.59;;;38.33;nan
9091;BME280;4581;42.416;25.598;2023-08-20T12:05:29;98385.94;;;38.18;nan
9091;BME280;4581;42.416;25.598;2023-08-20T12:07:57;98373.56;;;38.07;nan
9091;BME280;4581;42.416;25.598;2023-08-20T12:10:26;98385.19;;;37.93;nan
9091;BME280;4581;42.416;25.598;2023-08-20T12:12:54;98381.22;;;38.22;nan
9091;BME280;4581;42.416;25.598;2023-08-20T12:15:22;98381.94;;;38.19;nan
9091;BME280;4581;42.416;25.598;2023-08-20T12:18:00;98380.31;;;38.18;nan
9091;BME280;4581;42.416;25.598;2023-08-20T12:20:29;98375.41;;;38.15;nan
9091;BME280;4581;42.416;25.598;2023-08-20T12:23:04;98379.03;;;38.16;nan
9091;BME280;4581;42.416;25.598;2023-08-20T12:25:32;98369.53;;;38.08;nan
9091;BME280;4581;42.416;25.598;2023-08-20T12:28:01;98371.91;;;37.78;nan
9091;BME280;4581;42.416;25.598;2023-08-20T12:30:28;98360.84;;;37.58;nan
9091;BME280;4581;42.416;25.598;2023-08-20T12:32:55;98366.75;;;37.68;nan
9091;BME280;4581;42.416;25.598;2023-08-20T12:35:22;98367.03;;;37.63;nan
9091;BME280;4581;42.416;25.598;2023-08-20T12:37:48;98366.81;;;37.56;nan
9091;BME280;4581;42.416;25.598;2023-08-20T12:40:15;98365.31;;;37.46;nan
9091;BME280;4581;42.416;25.598;2023-08-20T12:42:43;98358.53;;;37.35;nan
9091;BME280;4581;42.416;25.598;2023-08-20T12:45:10;98356.09;;;36.85;nan
9091;BME280;4581;42.416;25.598;2023-08-20T12:47:39;98360.19;;;36.76;nan
9091;BME280;4581;42.416;25.598;2023-08-20T12:50:06;98354.56;;;36.64;nan
9091;BME280;4581;42.416;25.598;2023-08-20T12:52:33;98353.91;;;36.67;nan
9091;BME280;4581;42.416;25.598;2023-08-20T12:55:00;98362.22;;;36.63;nan
9091;BME280;4581;42.416;25.598;2023-08-20T12:57:26;98358.69;;;36.66;nan
9091;BME280;4581;42.416;25.598;2023-08-20T12:59:53;98349.28;;;36.50;nan
9091;BME280;4581;42.416;25.598;2023-08-20T13:02:20;98350.91;;;36.39;nan
9091;BME280;4581;42.416;25.598;2023-08-20T13:04:47;98345.84;;;36.20;nan
9091;BME280;4581;42.416;25.598;2023-08-20T13:07:14;98354.41;;;36.36;nan
9091;BME280;4581;42.416;25.598;2023-08-20T13:09:42;98358.16;;;36.40;nan
9091;BME280;4581;42.416;25.598;2023-08-20T13:12:10;98337.41;;;36.20;nan
9091;BME280;4581;42.416;25.598;2023-08-20T13:14:39;98347.75;;;36.07;nan
9091;BME280;4581;42.416;25.598;2023-08-20T13:17:08;98347.69;;;35.83;nan
9091;BME280;4581;42.416;25.598;2023-08-20T13:19:35;98344.50;;;35.73;nan
9091;BME280;4581;42.416;25.598;2023-08-20T13:22:01;98338.25;;;35.67;nan
9091;BME280;4581;42.416;25.598;2023-08-20T13:24:28;98334.28;;;35.47;nan
9091;BME280;4581;42.416;25.598;2023-08-20T13:26:55;98350.66;;;35.45;nan
9091;BME280;4581;42.416;25.598;2023-08-20T13:29:21;98346.34;;;35.27;nan
9091;BME280;4581;42.416;25.598;2023-08-20T13:31:48;98349.56;;;35.08;nan
9091;BME280;4581;42.416;25.598;2023-08-20T13:34:15;98336.84;;;34.90;nan
9091;BME280;4581;42.416;25.598;2023-08-20T13:36:42;98336.53;;;34.83;nan
9091;BME280;4581;42.416;25.598;2023-08-20T13:39:08;98336.63;;;34.74;nan
9091;BME280;4581;42.416;25.598;2023-08-20T13:41:35;98330.53;;;34.72;nan
9091;BME280;4581;42.416;25.598;2023-08-20T13:44:02;98341.50;;;34.86;nan
9091;BME280;4581;42.416;25.598;2023-08-20T13:46:29;98330.81;;;34.80;nan
9091;BME280;4581;42.416;25.598;2023-08-20T13:48:56;98324.09;;;34.72;nan
9091;BME280;4581;42.416;25.598;2023-08-20T13:51:23;98330.06;;;34.62;nan
9091;BME280;4581;42.416;25.598;2023-08-20T13:53:49;98330.28;;;34.48;nan